Time;durP1;ratioP1;P1;durP2;ratioP2;P2;SDS_P1;SDS_P2;PMS_P1;PMS_P2;Temp;Humidity;BMP_temperature;BMP_pressure;BME280_temperature;BME280_humidity;BME280_pressure;Samples;Min_cycle;Max_cycle;Signal;HPM_P1;HPM_P2
2021/10/13 00:00:55;;;;;;;;;;;;;;;9.75;100.00;99515.69;4951724;28;19925;-81
2021/10/13 00:03:20;;;;;;;;;;;;;;;9.05;100.00;99517.88;4943178;28;19924;-80
2021/10/13 00:05:45;;;;;;;;;;;;;;;9.54;100.00;99517.81;4970427;28;19923;-80
2021/10/13 00:08:11;;;;;;;;;;;;;;;9.20;100.00;99517.63;4893889;28;19925;-80
2021/10/13 00:10:36;;;;;;;;;;;;;;;8.82;100.00;99525.97;4908625;28;19938;-80
2021/10/13 00:13:01;;;;;;;;;;;;;;;8.49;100.00;99548.75;4958897;28;19977;-81
2021/10/13 00:15:27;;;;;;;;;;;;;;;8.52;100.00;99554.66;4964930;28;19957;-80
2021/10/13 00:17:52;;;;;;;;;;;;;;;8.50;100.00;99558.97;4965757;28;19972;-80
2021/10/13 00:20:17;;;;;;;;;;;;;;;8.75;100.00;99562.03;4947063;28;20359;-80
2021/10/13 00:22:43;;;;;;;;;;;;;;;8.49;100.00;99554.72;4970625;28;19929;-81
2021/10/13 00:25:08;;;;;;;;;;;;;;;8.72;100.00;99571.50;4941878;28;19913;-80
2021/10/13 00:27:33;;;;;;;;;;;;;;;8.81;100.00;99565.38;4978928;28;19930;-80
2021/10/13 00:29:59;;;;;;;;;;;;;;;8.44;100.00;99571.03;4968947;28;19927;-80
2021/10/13 00:32:24;;;;;;;;;;;;;;;8.36;100.00;99571.97;4950527;28;19919;-80
2021/10/13 00:34:49;;;;;;;;;;;;;;;8.17;100.00;99578.22;4981060;28;19917;-81
2021/10/13 00:37:15;;;;;;;;;;;;;;;8.71;100.00;99580.94;4947112;28;20042;-81
2021/10/13 00:39:40;;;;;;;;;;;;;;;8.75;100.00;99577.44;4953113;28;20173;-80
2021/10/13 00:42:05;;;;;;;;;;;;;;;8.83;100.00;99568.78;4960967;28;20014;-80
2021/10/13 00:44:31;;;;;;;;;;;;;;;8.95;100.00;99563.44;4947509;28;19926;-80
2021/10/13 00:46:57;;;;;;;;;;;;;;;8.96;100.00;99562.53;4892387;28;19977;-81
2021/10/13 00:49:23;;;;;;;;;;;;;;;9.20;100.00;99558.72;4954375;28;19921;-80
2021/10/13 00:51:48;;;;;;;;;;;;;;;9.41;100.00;99547.22;4953668;28;19928;-80
2021/10/13 00:54:13;;;;;;;;;;;;;;;9.34;100.00;99548.19;4947133;28;19919;-80
2021/10/13 00:56:39;;;;;;;;;;;;;;;9.20;100.00;99554.44;4954014;28;20316;-81
2021/10/13 00:59:04;;;;;;;;;;;;;;;9.33;100.00;99549.09;4960704;28;19926;-80
2021/10/13 01:01:31;;;;;;;;;;;;;;;9.53;100.00;99546.97;4907441;28;19923;-80
2021/10/13 01:04:05;;;;;;;;;;;;;;;9.06;100.00;99551.25;4965698;28;19917;-80
2021/10/13 01:06:45;;;;;;;;;;;;;;;9.41;100.00;99563.47;4928749;28;19994;-81
2021/10/13 01:09:15;;;;;;;;;;;;;;;9.27;100.00;99564.63;4966894;28;19965;-80
2021/10/13 01:11:47;;;;;;;;;;;;;;;9.76;100.00;99558.53;4947719;28;20252;-81
2021/10/13 01:14:33;;;;;;;;;;;;;;;9.60;100.00;99543.44;4955186;28;19973;-81
2021/10/13 01:17:21;;;;;;;;;;;;;;;8.95;100.00;99553.16;4974634;28;19915;-81
2021/10/13 01:19:50;;;;;;;;;;;;;;;9.09;100.00;99558.06;4963808;28;19925;-81
2021/10/13 01:22:28;;;;;;;;;;;;;;;9.27;100.00;99557.75;4963710;28;19954;-81
2021/10/13 01:25:03;;;;;;;;;;;;;;;9.73;100.00;99558.59;4951254;28;19945;-81
2021/10/13 01:27:34;;;;;;;;;;;;;;;9.99;100.00;99540.94;4958931;28;19930;-81
2021/10/13 01:29:59;;;;;;;;;;;;;;;9.82;100.00;99530.13;4912246;28;20342;-81
2021/10/13 01:32:26;;;;;;;;;;;;;;;9.73;100.00;99532.88;4894672;28;19919;-81
2021/10/13 01:34:52;;;;;;;;;;;;;;;9.68;100.00;99535.56;4956524;28;20393;-80
2021/10/13 01:37:18;;;;;;;;;;;;;;;9.58;100.00;99540.03;4900673;28;19958;-81
2021/10/13 01:39:44;;;;;;;;;;;;;;;8.93;100.00;99535.19;4949428;28;19978;-82
2021/10/13 01:42:11;;;;;;;;;;;;;;;8.84;100.00;99548.19;4911114;28;19931;-81
2021/10/13 01:44:36;;;;;;;;;;;;;;;8.76;100.00;99552.63;4967031;28;19970;-81
2021/10/13 01:47:01;;;;;;;;;;;;;;;9.67;100.00;99545.84;4903837;28;19949;-81
2021/10/13 01:49:31;;;;;;;;;;;;;;;9.94;100.00;99544.47;4956354;28;19923;-82
2021/10/13 01:51:56;;;;;;;;;;;;;;;10.15;100.00;99540.59;4966978;28;20008;-82
2021/10/13 01:54:21;;;;;;;;;;;;;;;10.32;100.00;99533.38;4908438;28;20006;-81
2021/10/13 01:56:47;;;;;;;;;;;;;;;10.33;100.00;99524.78;4936430;28;19917;-81
2021/10/13 01:59:14;;;;;;;;;;;;;;;10.24;100.00;99530.09;4970619;28;19938;-81
2021/10/13 02:01:39;;;;;;;;;;;;;;;10.38;100.00;99538.41;4977694;28;20455;-81
2021/10/13 02:04:06;;;;;;;;;;;;;;;10.53;100.00;99533.78;4965235;28;19961;-81
2021/10/13 02:06:31;;;;;;;;;;;;;;;9.82;100.00;99532.69;4947185;28;19922;-81
2021/10/13 02:08:57;;;;;;;;;;;;;;;9.87;100.00;99545.47;4953825;28;19922;-81
2021/10/13 02:11:23;;;;;;;;;;;;;;;10.07;100.00;99545.91;4954396;28;20952;-81
2021/10/13 02:13:48;;;;;;;;;;;;;;;10.18;100.00;99545.69;4959161;28;19923;-81
2021/10/13 02:16:14;;;;;;;;;;;;;;;10.18;100.00;99550.84;4965406;28;20045;-81
2021/10/13 02:18:39;;;;;;;;;;;;;;;10.13;100.00;99540.63;4960292;28;19921;-81
2021/10/13 02:21:04;;;;;;;;;;;;;;;10.00;100.00;99558.06;4976369;28;19960;-81
2021/10/13 02:23:30;;;;;;;;;;;;;;;10.32;100.00;99559.13;4969075;28;19917;-81
2021/10/13 02:25:56;;;;;;;;;;;;;;;9.82;100.00;99559.25;4886871;28;20014;-81
2021/10/13 02:28:24;;;;;;;;;;;;;;;9.74;100.00;99570.56;4963071;28;20012;-82
2021/10/13 02:30:50;;;;;;;;;;;;;;;9.99;100.00;99565.78;4959925;28;19964;-81
2021/10/13 02:33:15;;;;;;;;;;;;;;;10.22;100.00;99562.75;4897352;28;19927;-81
2021/10/13 02:35:40;;;;;;;;;;;;;;;9.96;100.00;99561.56;4957105;28;20022;-80
2021/10/13 02:38:06;;;;;;;;;;;;;;;10.32;100.00;99566.84;4972502;28;19962;-81
2021/10/13 02:40:31;;;;;;;;;;;;;;;10.42;100.00;99560.63;4896782;28;19925;-81
2021/10/13 02:42:56;;;;;;;;;;;;;;;10.42;100.00;99565.78;4968829;28;20301;-81
2021/10/13 02:45:22;;;;;;;;;;;;;;;10.48;100.00;99566.50;4978274;28;19922;-80
2021/10/13 02:47:51;;;;;;;;;;;;;;;10.44;100.00;99574.28;4950165;28;19919;-81
2021/10/13 02:50:23;;;;;;;;;;;;;;;10.37;100.00;99580.47;4964502;28;19927;-81
2021/10/13 02:52:57;;;;;;;;;;;;;;;10.00;100.00;99577.78;4952840;28;19932;-81
2021/10/13 02:55:25;;;;;;;;;;;;;;;10.07;100.00;99584.50;4943195;28;19926;-81
2021/10/13 02:58:06;;;;;;;;;;;;;;;10.26;100.00;99588.41;4959954;28;19923;-81
2021/10/13 03:00:32;;;;;;;;;;;;;;;9.85;100.00;99589.22;4965461;28;19928;-81
2021/10/13 03:03:04;;;;;;;;;;;;;;;10.05;100.00;99589.69;4951558;28;20020;-81
2021/10/13 03:05:29;;;;;;;;;;;;;;;9.24;100.00;99592.91;4955077;28;20625;-81
2021/10/13 03:07:55;;;;;;;;;;;;;;;9.28;100.00;99603.13;4955042;28;19903;-81
2021/10/13 03:10:21;;;;;;;;;;;;;;;9.54;100.00;99601.84;4955007;28;19930;-82
2021/10/13 03:12:52;;;;;;;;;;;;;;;9.76;100.00;99589.41;4963172;28;19917;-81
2021/10/13 03:15:17;;;;;;;;;;;;;;;10.16;100.00;99583.47;4963223;28;20713;-81
2021/10/13 03:17:44;;;;;;;;;;;;;;;10.25;100.00;99583.28;4971070;28;20045;-81
2021/10/13 03:20:10;;;;;;;;;;;;;;;10.27;100.00;99577.22;4966768;28;19921;-81
2021/10/13 03:22:36;;;;;;;;;;;;;;;10.06;100.00;99587.97;4974618;28;19929;-81
2021/10/13 03:25:02;;;;;;;;;;;;;;;10.13;100.00;99583.53;4906285;28;19921;-81
2021/10/13 03:27:28;;;;;;;;;;;;;;;10.22;100.00;99588.50;4907885;28;19913;-81
2021/10/13 03:29:53;;;;;;;;;;;;;;;9.97;100.00;99599.28;4942218;28;20592;-80
2021/10/13 03:32:19;;;;;;;;;;;;;;;8.91;100.00;99600.31;4970544;28;19928;-81
2021/10/13 03:34:45;;;;;;;;;;;;;;;8.98;100.00;99604.47;4964966;28;19920;-81
2021/10/13 03:37:12;;;;;;;;;;;;;;;9.03;100.00;99612.09;4975764;28;20975;-81
2021/10/13 03:39:38;;;;;;;;;;;;;;;9.51;100.00;99613.03;4954437;28;19919;-80
2021/10/13 03:42:03;;;;;;;;;;;;;;;9.54;100.00;99610.38;4970922;28;19934;-81
2021/10/13 03:44:28;;;;;;;;;;;;;;;8.88;100.00;99608.06;4955022;28;19915;-80
2021/10/13 03:46:54;;;;;;;;;;;;;;;8.50;100.00;99618.00;4955690;28;19917;-82
2021/10/13 03:49:19;;;;;;;;;;;;;;;9.06;100.00;99627.50;4893303;28;19934;-80
2021/10/13 03:51:45;;;;;;;;;;;;;;;8.74;100.00;99626.25;4974241;28;20281;-80
2021/10/13 03:54:10;;;;;;;;;;;;;;;9.57;100.00;99628.31;4970241;28;19930;-80
2021/10/13 03:56:35;;;;;;;;;;;;;;;9.26;100.00;99614.31;4958594;28;20002;-80
2021/10/13 03:59:01;;;;;;;;;;;;;;;9.19;100.00;99622.13;4948386;28;20351;-80
2021/10/13 04:01:26;;;;;;;;;;;;;;;8.49;100.00;99626.59;4947895;28;20393;-80
2021/10/13 04:03:51;;;;;;;;;;;;;;;9.17;100.00;99631.59;4980520;28;19967;-81
2021/10/13 04:06:17;;;;;;;;;;;;;;;9.30;100.00;99639.09;4967880;28;20313;-81
2021/10/13 04:08:42;;;;;;;;;;;;;;;9.55;100.00;99630.06;4968666;28;19934;-80
2021/10/13 04:11:07;;;;;;;;;;;;;;;9.49;100.00;99632.78;4972517;28;19954;-80
2021/10/13 04:13:33;;;;;;;;;;;;;;;9.56;100.00;99633.50;4968128;28;19933;-81
2021/10/13 04:15:58;;;;;;;;;;;;;;;9.37;100.00;99632.97;4943042;28;20313;-81
2021/10/13 04:18:23;;;;;;;;;;;;;;;9.55;100.00;99637.78;4953954;28;19976;-81
2021/10/13 04:20:49;;;;;;;;;;;;;;;9.17;100.00;99634.16;4899289;28;19921;-81
2021/10/13 04:23:14;;;;;;;;;;;;;;;8.75;100.00;99643.34;4955033;28;20417;-81
2021/10/13 04:25:39;;;;;;;;;;;;;;;8.46;100.00;99651.44;4957330;28;19917;-81
2021/10/13 04:28:05;;;;;;;;;;;;;;;8.98;100.00;99645.59;4955070;28;19922;-81
2021/10/13 04:30:30;;;;;;;;;;;;;;;9.45;100.00;99630.28;4957943;28;19943;-81
2021/10/13 04:32:56;;;;;;;;;;;;;;;9.42;100.00;99620.91;4963658;28;20377;-81
2021/10/13 04:35:21;;;;;;;;;;;;;;;9.32;100.00;99625.34;4958922;28;19926;-81
2021/10/13 04:37:46;;;;;;;;;;;;;;;8.91;100.00;99628.56;4947565;28;19917;-80
2021/10/13 04:40:12;;;;;;;;;;;;;;;9.03;100.00;99638.66;4968339;28;19945;-81
2021/10/13 04:42:37;;;;;;;;;;;;;;;9.11;100.00;99636.81;4967735;28;19917;-81
2021/10/13 04:45:03;;;;;;;;;;;;;;;8.93;100.00;99631.97;4910146;28;20654;-81
2021/10/13 04:47:28;;;;;;;;;;;;;;;9.42;100.00;99637.16;4966422;28;19930;-81
2021/10/13 04:49:53;;;;;;;;;;;;;;;9.59;100.00;99631.72;4969549;28;19927;-82
2021/10/13 04:52:19;;;;;;;;;;;;;;;9.69;100.00;99634.97;4930991;28;19975;-81
2021/10/13 04:54:44;;;;;;;;;;;;;;;9.35;100.00;99629.56;4968739;28;19919;-80
2021/10/13 04:57:09;;;;;;;;;;;;;;;9.10;100.00;99639.41;4957860;28;20011;-81
2021/10/13 04:59:35;;;;;;;;;;;;;;;9.01;100.00;99645.56;4969476;28;19927;-81
2021/10/13 05:02:00;;;;;;;;;;;;;;;9.00;100.00;99646.41;4966526;28;19933;-81
2021/10/13 05:04:25;;;;;;;;;;;;;;;8.67;100.00;99660.59;4944960;28;19925;-81
2021/10/13 05:06:51;;;;;;;;;;;;;;;8.91;100.00;99670.50;4953312;28;19943;-80
2021/10/13 05:09:16;;;;;;;;;;;;;;;9.28;100.00;99662.22;4969610;28;19961;-81
2021/10/13 05:11:42;;;;;;;;;;;;;;;9.36;100.00;99657.00;4949602;28;20515;-81
2021/10/13 05:14:07;;;;;;;;;;;;;;;9.13;100.00;99655.63;4957731;28;19924;-81
2021/10/13 05:16:33;;;;;;;;;;;;;;;9.14;100.00;99659.88;4968450;28;19926;-81
2021/10/13 05:18:58;;;;;;;;;;;;;;;9.05;100.00;99654.88;4962780;28;19998;-81
2021/10/13 05:21:23;;;;;;;;;;;;;;;9.39;100.00;99651.78;4959626;28;20008;-81
2021/10/13 05:23:49;;;;;;;;;;;;;;;9.32;100.00;99643.31;4976760;28;19982;-83
2021/10/13 05:26:14;;;;;;;;;;;;;;;9.38;100.00;99637.25;4951628;28;19927;-82
2021/10/13 05:28:40;;;;;;;;;;;;;;;9.38;100.00;99639.81;4949343;28;19921;-84
2021/10/13 05:31:06;;;;;;;;;;;;;;;9.28;100.00;99643.41;4901664;28;19957;-83
2021/10/13 05:33:32;;;;;;;;;;;;;;;9.20;100.00;99646.09;4949713;28;19971;-83
2021/10/13 05:35:57;;;;;;;;;;;;;;;9.13;100.00;99654.78;4966714;28;19925;-80
2021/10/13 05:38:23;;;;;;;;;;;;;;;9.17;100.00;99648.72;4966005;28;19921;-81
2021/10/13 05:40:49;;;;;;;;;;;;;;;9.03;100.00;99655.78;4965161;28;19969;-82
2021/10/13 05:43:14;;;;;;;;;;;;;;;9.18;100.00;99658.13;4965672;28;19989;-82
2021/10/13 05:45:39;;;;;;;;;;;;;;;8.96;100.00;99667.88;4942075;28;20585;-83
2021/10/13 05:48:05;;;;;;;;;;;;;;;9.17;100.00;99662.44;4979311;28;20554;-81
2021/10/13 05:50:30;;;;;;;;;;;;;;;9.33;100.00;99662.19;4959540;28;19950;-83
2021/10/13 05:52:55;;;;;;;;;;;;;;;8.71;100.00;99667.38;4936035;28;19981;-82
2021/10/13 05:55:20;;;;;;;;;;;;;;;8.86;100.00;99676.59;4952537;28;19944;-82
2021/10/13 05:57:46;;;;;;;;;;;;;;;9.05;100.00;99677.16;4955849;28;19964;-83
2021/10/13 06:00:11;;;;;;;;;;;;;;;8.83;100.00;99677.50;4965286;28;19944;-82
2021/10/13 06:02:49;;;;;;;;;;;;;;;8.84;100.00;99675.75;4963327;28;19927;-82
2021/10/13 06:05:14;;;;;;;;;;;;;;;9.21;100.00;99682.06;4968551;28;19976;-81
2021/10/13 06:07:40;;;;;;;;;;;;;;;8.71;100.00;99683.66;4944079;28;19917;-81
2021/10/13 06:10:05;;;;;;;;;;;;;;;8.59;100.00;99697.47;4957434;28;19915;-82
2021/10/13 06:12:31;;;;;;;;;;;;;;;8.70;100.00;99701.63;4905083;28;19998;-81
2021/10/13 06:14:56;;;;;;;;;;;;;;;8.68;100.00;99709.34;4949400;28;19925;-82
2021/10/13 06:17:22;;;;;;;;;;;;;;;8.53;100.00;99709.53;4950010;28;19915;-82
2021/10/13 06:19:48;;;;;;;;;;;;;;;9.01;100.00;99702.06;4917675;28;19962;-81
2021/10/13 06:22:15;;;;;;;;;;;;;;;8.88;100.00;99708.25;4963422;28;19971;-83
2021/10/13 06:24:40;;;;;;;;;;;;;;;8.86;100.00;99722.81;4951714;28;19928;-82
2021/10/13 06:27:06;;;;;;;;;;;;;;;8.62;100.00;99732.56;4909016;28;20486;-83
2021/10/13 06:29:32;;;;;;;;;;;;;;;8.84;100.00;99737.41;4897103;28;20089;-82
2021/10/13 06:31:57;;;;;;;;;;;;;;;8.99;100.00;99750.06;4954203;28;19978;-83
2021/10/13 06:34:22;;;;;;;;;;;;;;;9.32;100.00;99742.72;4966942;28;20386;-81
2021/10/13 06:36:48;;;;;;;;;;;;;;;9.04;100.00;99748.25;4949479;28;19926;-81
2021/10/13 06:39:13;;;;;;;;;;;;;;;8.90;100.00;99743.31;4901086;28;20417;-82
2021/10/13 06:41:38;;;;;;;;;;;;;;;9.08;100.00;99737.09;4941515;28;20010;-81
2021/10/13 06:44:04;;;;;;;;;;;;;;;9.03;100.00;99730.28;4946696;28;19919;-81
2021/10/13 06:46:29;;;;;;;;;;;;;;;9.17;100.00;99739.50;4966704;28;19930;-82
2021/10/13 06:48:54;;;;;;;;;;;;;;;9.01;100.00;99748.31;4969482;28;19937;-80
2021/10/13 06:51:20;;;;;;;;;;;;;;;9.32;100.00;99759.00;4984614;28;19984;-82
2021/10/13 06:53:48;;;;;;;;;;;;;;;9.19;100.00;99763.47;4976772;28;19963;-81
2021/10/13 06:56:14;;;;;;;;;;;;;;;9.18;100.00;99761.75;4952073;28;20090;-82
2021/10/13 06:58:39;;;;;;;;;;;;;;;9.93;100.00;99757.16;4975187;28;20197;-81
2021/10/13 07:01:05;;;;;;;;;;;;;;;9.17;100.00;99754.94;4959421;28;19976;-80
2021/10/13 07:03:30;;;;;;;;;;;;;;;9.39;100.00;99754.59;4946090;28;19919;-81
2021/10/13 07:05:55;;;;;;;;;;;;;;;9.69;100.00;99757.56;4962649;28;20477;-81
2021/10/13 07:08:21;;;;;;;;;;;;;;;9.72;100.00;99754.97;4945351;28;19927;-82
2021/10/13 07:10:46;;;;;;;;;;;;;;;10.20;100.00;99752.41;4890947;28;19934;-81
2021/10/13 07:13:11;;;;;;;;;;;;;;;10.22;100.00;99748.09;4963849;28;19926;-82
2021/10/13 07:15:37;;;;;;;;;;;;;;;10.26;100.00;99749.72;4897653;28;19923;-81
2021/10/13 07:18:02;;;;;;;;;;;;;;;9.68;100.00;99761.88;4957975;28;19915;-81
2021/10/13 07:20:28;;;;;;;;;;;;;;;10.09;100.00;99751.75;4978023;28;19975;-80
2021/10/13 07:22:53;;;;;;;;;;;;;;;9.88;100.00;99753.84;4961864;28;19921;-80
2021/10/13 07:25:23;;;;;;;;;;;;;;;9.80;100.00;99753.94;4966075;28;19921;-82
2021/10/13 07:27:48;;;;;;;;;;;;;;;10.15;100.00;99762.81;4963994;28;19991;-81
2021/10/13 07:30:17;;;;;;;;;;;;;;;10.74;100.00;99760.00;4967991;28;19992;-81
2021/10/13 07:32:42;;;;;;;;;;;;;;;10.63;100.00;99760.19;4971613;28;20563;-81
2021/10/13 07:35:08;;;;;;;;;;;;;;;10.58;100.00;99754.28;4960972;28;20037;-81
2021/10/13 07:37:34;;;;;;;;;;;;;;;11.06;100.00;99758.44;4976228;28;19969;-82
2021/10/13 07:40:01;;;;;;;;;;;;;;;11.03;100.00;99746.47;4961046;28;19921;-81
2021/10/13 07:42:26;;;;;;;;;;;;;;;10.77;100.00;99744.47;4912933;28;19925;-81
2021/10/13 07:44:55;;;;;;;;;;;;;;;10.81;100.00;99756.41;4909888;28;20470;-81
2021/10/13 07:47:20;;;;;;;;;;;;;;;10.65;100.00;99766.16;4959533;28;19919;-81
2021/10/13 07:49:45;;;;;;;;;;;;;;;11.42;100.00;99771.38;4971642;28;20943;-80
2021/10/13 07:52:11;;;;;;;;;;;;;;;11.11;100.00;99761.78;4897866;28;19921;-82
2021/10/13 07:54:36;;;;;;;;;;;;;;;11.45;100.00;99766.19;4972473;28;20010;-82
2021/10/13 07:57:01;;;;;;;;;;;;;;;11.46;100.00;99768.69;4963255;28;20000;-82
2021/10/13 07:59:27;;;;;;;;;;;;;;;11.52;100.00;99778.88;4909998;28;20014;-80
2021/10/13 08:01:52;;;;;;;;;;;;;;;11.76;100.00;99770.59;4914066;28;20353;-81
2021/10/13 08:04:17;;;;;;;;;;;;;;;11.59;100.00;99763.28;4920569;28;19917;-83
2021/10/13 08:06:44;;;;;;;;;;;;;;;11.48;100.00;99771.25;4952012;23;20372;-67
2021/10/13 08:09:11;;;;;;;;;;;;;;;12.31;100.00;99774.38;4930905;28;20380;-68
2021/10/13 08:11:37;;;;;;;;;;;;;;;11.42;100.00;99773.97;4933835;28;20323;-67
2021/10/13 08:14:02;;;;;;;;;;;;;;;11.38;100.00;99782.66;4934516;28;19927;-67
2021/10/13 08:16:27;;;;;;;;;;;;;;;12.08;100.00;99782.72;4897054;28;19923;-67
2021/10/13 08:18:53;;;;;;;;;;;;;;;12.35;100.00;99782.00;4930214;28;19924;-67
2021/10/13 08:21:18;;;;;;;;;;;;;;;11.70;100.00;99793.09;4931814;28;20414;-67
2021/10/13 08:23:43;;;;;;;;;;;;;;;11.83;100.00;99793.63;4941744;28;19917;-67
2021/10/13 08:26:09;;;;;;;;;;;;;;;12.47;100.00;99796.31;4953738;28;19915;-68
2021/10/13 08:28:35;;;;;;;;;;;;;;;11.18;100.00;99794.28;4938164;28;19926;-61
2021/10/13 08:31:00;;;;;;;;;;;;;;;11.98;100.00;99801.94;4935900;28;19930;-65
2021/10/13 08:33:26;;;;;;;;;;;;;;;11.86;100.00;99808.19;4896532;28;19919;-67
2021/10/13 08:35:52;;;;;;;;;;;;;;;11.60;100.00;99812.22;4928697;28;20065;-67
2021/10/13 08:38:17;;;;;;;;;;;;;;;10.78;100.00;99817.44;4955783;28;19927;-67
2021/10/13 08:40:42;;;;;;;;;;;;;;;10.37;100.00;99830.22;4937071;28;19923;-67
2021/10/13 08:43:08;;;;;;;;;;;;;;;10.38;100.00;99831.94;4912788;28;20028;-67
2021/10/13 08:45:34;;;;;;;;;;;;;;;10.55;100.00;99838.50;4902697;28;19919;-67
2021/10/13 08:48:00;;;;;;;;;;;;;;;10.54;100.00;99841.94;4924931;28;19979;-67
2021/10/13 08:50:26;;;;;;;;;;;;;;;10.64;100.00;99843.47;4925300;28;19923;-67
2021/10/13 08:52:53;;;;;;;;;;;;;;;10.51;100.00;99849.72;4898248;28;19922;-67
2021/10/13 08:55:19;;;;;;;;;;;;;;;10.07;100.00;99861.59;4924479;28;20320;-67
2021/10/13 08:57:44;;;;;;;;;;;;;;;10.07;100.00;99864.19;4905213;28;19948;-67
2021/10/13 09:00:10;;;;;;;;;;;;;;;9.80;100.00;99874.00;4924252;28;19930;-67
2021/10/13 09:02:37;;;;;;;;;;;;;;;9.83;100.00;99879.97;4925573;28;19922;-67
2021/10/13 09:05:03;;;;;;;;;;;;;;;9.99;100.00;99874.56;4944562;28;19927;-67
2021/10/13 09:07:28;;;;;;;;;;;;;;;10.57;100.00;99872.78;4952399;28;20092;-68
2021/10/13 09:09:54;;;;;;;;;;;;;;;10.85;100.00;99868.81;4905156;28;20082;-67
2021/10/13 09:12:32;;;;;;;;;;;;;;;11.48;100.00;99858.97;4960163;28;19919;-67
2021/10/13 09:15:11;;;;;;;;;;;;;;;11.43;100.00;99850.47;4926326;28;19913;-67
2021/10/13 09:17:56;;;;;;;;;;;;;;;12.02;100.00;99837.09;4959565;28;19924;-64
2021/10/13 09:20:22;;;;;;;;;;;;;;;11.13;100.00;99839.94;4939516;28;20015;-65
2021/10/13 09:23:02;;;;;;;;;;;;;;;11.73;100.00;99849.78;4938307;28;20456;-64
2021/10/13 09:25:28;;;;;;;;;;;;;;;11.31;100.00;99838.66;4956275;28;20346;-64
2021/10/13 09:27:53;;;;;;;;;;;;;;;11.41;100.00;99847.06;4928315;28;19919;-64
2021/10/13 09:30:30;;;;;;;;;;;;;;;11.05;100.00;99857.28;4945245;28;19942;-65
2021/10/13 09:33:06;;;;;;;;;;;;;;;11.33;100.00;99864.44;4956054;28;19927;-64
2021/10/13 09:35:40;;;;;;;;;;;;;;;11.37;100.00;99855.75;4919252;28;20553;-65
2021/10/13 09:38:05;;;;;;;;;;;;;;;11.30;100.00;99855.88;4949365;28;19940;-65
2021/10/13 09:40:32;;;;;;;;;;;;;;;11.86;100.00;99849.47;4941332;28;20415;-65
2021/10/13 09:43:00;;;;;;;;;;;;;;;12.29;100.00;99848.47;4948067;28;19917;-65
2021/10/13 09:45:27;;;;;;;;;;;;;;;11.20;100.00;99836.34;4905046;28;19927;-69
2021/10/13 09:47:59;;;;;;;;;;;;;;;11.53;100.00;99841.63;4934093;28;19919;-69
2021/10/13 09:50:36;;;;;;;;;;;;;;;12.05;100.00;99840.44;4941422;28;19973;-68
2021/10/13 09:53:19;;;;;;;;;;;;;;;11.70;100.00;99829.22;4896152;28;21808;-69
2021/10/13 09:55:45;;;;;;;;;;;;;;;11.63;100.00;99834.53;4909832;28;19922;-69
2021/10/13 09:58:20;;;;;;;;;;;;;;;11.85;100.00;99842.63;4933874;28;20879;-69
2021/10/13 10:00:46;;;;;;;;;;;;;;;11.73;100.00;99842.03;4902023;28;20380;-69
2021/10/13 10:03:12;;;;;;;;;;;;;;;11.57;100.00;99845.00;4903990;28;19932;-69
2021/10/13 10:05:38;;;;;;;;;;;;;;;11.12;100.00;99850.25;4943375;28;19972;-69
2021/10/13 10:08:07;;;;;;;;;;;;;;;11.10;100.00;99847.72;4947825;28;19919;-69
2021/10/13 10:10:33;;;;;;;;;;;;;;;12.04;100.00;99849.09;4905712;28;19932;-69
2021/10/13 10:13:09;;;;;;;;;;;;;;;12.03;100.00;99849.97;4890355;28;19915;-69
2021/10/13 10:15:39;;;;;;;;;;;;;;;11.62;100.00;99854.31;4906786;28;19959;-69
2021/10/13 10:18:32;;;;;;;;;;;;;;;11.86;100.00;99846.91;4948051;28;19954;-69
2021/10/13 10:21:16;;;;;;;;;;;;;;;12.41;100.00;99858.50;4936517;28;19921;-68
2021/10/13 10:23:42;;;;;;;;;;;;;;;12.52;100.00;99858.19;4934371;28;19922;-69
2021/10/13 10:26:19;;;;;;;;;;;;;;;13.01;100.00;99854.28;4902866;28;19919;-69
2021/10/13 10:28:54;;;;;;;;;;;;;;;12.53;100.00;99858.16;4933706;28;20068;-69
2021/10/13 10:31:28;;;;;;;;;;;;;;;12.67;100.00;99855.22;4935891;28;19972;-69
2021/10/13 10:34:03;;;;;;;;;;;;;;;12.65;100.00;99856.16;4938885;28;19930;-69
2021/10/13 10:36:35;;;;;;;;;;;;;;;12.49;100.00;99856.53;4928670;28;20265;-69
2021/10/13 10:39:03;;;;;;;;;;;;;;;12.89;100.00;99854.66;4934444;28;20355;-69
2021/10/13 10:41:44;;;;;;;;;;;;;;;12.55;100.00;99861.56;4930762;28;19923;-69
2021/10/13 10:44:28;;;;;;;;;;;;;;;12.40;100.00;99855.94;4944913;28;20400;-69
2021/10/13 10:46:58;;;;;;;;;;;;;;;12.55;100.00;99858.13;4938612;28;19918;-69
2021/10/13 10:49:42;;;;;;;;;;;;;;;11.96;100.00;99858.75;4936904;28;19919;-69
2021/10/13 10:52:07;;;;;;;;;;;;;;;12.17;100.00;99870.28;4932459;28;19961;-69
2021/10/13 10:54:33;;;;;;;;;;;;;;;11.71;100.00;99867.03;4933446;28;20002;-69
2021/10/13 10:56:58;;;;;;;;;;;;;;;11.90;100.00;99866.63;4933129;28;20121;-69
2021/10/13 10:59:31;;;;;;;;;;;;;;;11.60;100.00;99874.16;4935866;28;19917;-69
2021/10/13 11:02:18;;;;;;;;;;;;;;;11.97;100.00;99865.59;4925614;28;20307;-69
2021/10/13 11:05:04;;;;;;;;;;;;;;;11.80;100.00;99872.88;4895991;28;20258;-68
2021/10/13 11:07:30;;;;;;;;;;;;;;;11.53;100.00;99862.28;4964851;28;19952;-68
2021/10/13 11:10:22;;;;;;;;;;;;;;;12.19;100.00;99867.66;4924460;28;19925;-67
2021/10/13 11:12:51;;;;;;;;;;;;;;;12.17;100.00;99864.28;4954857;28;20380;-65
2021/10/13 11:15:18;;;;;;;;;;;;;;;12.35;100.00;99863.81;4999121;28;19913;-66
2021/10/13 11:17:44;;;;;;;;;;;;;;;12.75;100.00;99870.53;4957673;28;19968;-68
2021/10/13 11:20:10;;;;;;;;;;;;;;;12.32;100.00;99858.72;4991504;28;19958;-67
2021/10/13 11:22:55;;;;;;;;;;;;;;;12.39;100.00;99854.25;4899326;29;19923;-67
2021/10/13 11:25:20;;;;;;;;;;;;;;;12.15;100.00;99856.56;4925137;28;19969;-67
2021/10/13 11:28:01;;;;;;;;;;;;;;;12.11;100.00;99855.81;4928359;28;19949;-65
2021/10/13 11:30:31;;;;;;;;;;;;;;;12.40;100.00;99851.63;4940031;28;19921;-65
2021/10/13 11:32:57;;;;;;;;;;;;;;;12.55;100.00;99850.38;4944866;28;20681;-65
2021/10/13 11:35:23;;;;;;;;;;;;;;;12.27;100.00;99857.97;4945738;28;19919;-64
2021/10/13 11:37:49;;;;;;;;;;;;;;;12.43;100.00;99855.84;4937130;28;19927;-68
2021/10/13 11:40:15;;;;;;;;;;;;;;;12.70;100.00;99864.63;4935600;28;19922;-67
2021/10/13 11:42:40;;;;;;;;;;;;;;;13.13;100.00;99847.91;4903149;28;20335;-67
2021/10/13 11:45:08;;;;;;;;;;;;;;;12.76;100.00;99843.78;4937887;28;19976;-68
2021/10/13 11:47:34;;;;;;;;;;;;;;;12.88;100.00;99848.59;4961460;28;19923;-68
2021/10/13 11:50:10;;;;;;;;;;;;;;;12.84;100.00;99852.19;4928218;28;19964;-67
2021/10/13 11:52:36;;;;;;;;;;;;;;;12.98;100.00;99844.03;4954457;28;20170;-67
2021/10/13 11:55:03;;;;;;;;;;;;;;;12.50;100.00;99849.66;4930274;29;19915;-67
2021/10/13 11:57:28;;;;;;;;;;;;;;;13.07;100.00;99848.09;4952884;28;20025;-65
2021/10/13 12:00:13;;;;;;;;;;;;;;;13.18;100.00;99846.91;5006215;28;20004;-66
2021/10/13 12:02:39;;;;;;;;;;;;;;;12.58;100.00;99854.63;4948138;28;19926;-66
2021/10/13 12:05:05;;;;;;;;;;;;;;;12.63;100.00;99860.50;4931095;28;20410;-67
2021/10/13 12:07:38;;;;;;;;;;;;;;;12.56;100.00;99846.91;4938386;28;20398;-67
2021/10/13 12:10:03;;;;;;;;;;;;;;;12.76;100.00;99859.28;4893965;28;19993;-67
2021/10/13 12:12:29;;;;;;;;;;;;;;;12.69;100.00;99850.00;4901596;28;20064;-67
2021/10/13 12:14:55;;;;;;;;;;;;;;;13.31;100.00;99842.22;4935501;28;20006;-67
2021/10/13 12:17:26;;;;;;;;;;;;;;;13.54;100.00;99840.69;4945087;28;19919;-64
2021/10/13 12:19:52;;;;;;;;;;;;;;;13.69;100.00;99829.88;4953979;28;20040;-64
2021/10/13 12:22:17;;;;;;;;;;;;;;;13.74;100.00;99837.50;4963962;28;19919;-65
2021/10/13 12:24:43;;;;;;;;;;;;;;;13.47;100.00;99839.19;4951323;28;19945;-68
2021/10/13 12:27:09;;;;;;;;;;;;;;;12.92;100.00;99841.63;4933991;28;20395;-67
2021/10/13 12:29:43;;;;;;;;;;;;;;;12.69;100.00;99842.25;4930253;28;19938;-68
2021/10/13 12:32:18;;;;;;;;;;;;;;;13.23;100.00;99839.00;4880836;28;19915;-68
2021/10/13 12:34:43;;;;;;;;;;;;;;;12.93;100.00;99833.84;4939755;28;19915;-65
2021/10/13 12:37:09;;;;;;;;;;;;;;;12.60;100.00;99837.34;4918834;28;19981;-65
2021/10/13 12:39:34;;;;;;;;;;;;;;;12.91;100.00;99834.78;4960975;28;20021;-65
2021/10/13 12:42:07;;;;;;;;;;;;;;;12.50;100.00;99840.16;4950392;28;19934;-66